Sunday, August 19, 2018, 12:27 AM GMT
Back to Local

CXSH, Shawinigan CS , Que.

Location: , , Canada Lat: 46.583
Local Time: 12:27 AM GMT ( 0:27 GMT) Lon: -72.583
Time Zone: GMT Elev: 360 ft

Show me the last for .
Show Coded

Time T Td Feel RH Dir Speed Gust Alt SLP Vis Weather Sky Remarks
2018-08-19 00:00 70 57 76 63 340° 5 - - 29.94 0 None
2018-08-18 23:00 74 55 77 51 10° 6 - - 29.93 0 None
2018-08-18 22:00 75 57 78 53 20° 7 - - 29.92 0 None
2018-08-18 21:00 76 56 78 50 340° 7 - - 29.91 0 None
2018-08-18 20:00 76 58 78 53 360° 8 - - 29.90 0 None
2018-08-18 19:00 75 58 78 56 360° 7 - - 29.91 0 None
2018-08-18 18:00 75 59 78 57 10° 8 - - 29.91 0 None
2018-08-18 17:00 74 60 77 63 60° 7 - - 29.91 0 None
2018-08-18 16:00 70 57 76 63 10° 8 - - 29.92 0 None
2018-08-18 15:00 67 59 - 73 360° 7 - - 29.92 0 None
2018-08-18 14:00 62 57 - 85 360° 6 - - 29.92 0 None
2018-08-18 13:00 61 56 - 83 360° 7 - - 29.92 0 None
2018-08-18 12:00 60 55 - 85 350° 8 - - 29.91 0 None
2018-08-18 11:00 59 55 - 88 350° 10 17 - 29.90 0 None
2018-08-18 10:00 59 56 - 89 350° 8 - - 29.89 0 None
2018-08-18 09:00 59 56 - 89 340° 10 17 - 29.88 0 None
2018-08-18 08:00 59 56 - 90 350° 6 - - 29.86 0 None
2018-08-18 07:00 60 57 - 90 30° 3 - - 29.86 0 None
2018-08-18 06:00 60 57 - 90 340° 7 - - 29.87 0 None
2018-08-18 05:00 59 56 - 90 340° 7 - - 29.87 0 None
2018-08-18 04:00 58 56 - 90 340° 9 - - 29.87 0 None
2018-08-18 03:00 60 59 - 93 10° 6 - - 29.86 0 1-hr Precip Total: 0.01"
2018-08-18 02:00 61 60 - 95 360° 6 - - 29.88 0 1-hr Precip Total: 0.30"
2018-08-18 01:00 62 60 - 95 10° 9 - - 29.87 0 1-hr Precip Total: 0.13"

Support USWX by starting your Amazon purchase here.